Time;durP1;ratioP1;P1;durP2;ratioP2;P2;SDS_P1;SDS_P2;PMS_P1;PMS_P2;Temp;Humidity;BMP_temperature;BMP_pressure;BME280_temperature;BME280_humidity;BME280_pressure;Samples;Min_cycle;Max_cycle;Signal;HPM_P1;HPM_P2
2022/03/05 11:30:53;;;;;;;16.33;7.30;;;12.30;77.30;;;;;;5018663;28;20120;-65
2022/03/05 11:33:23;;;;;;;14.43;7.40;;;;;;;;;;5020242;28;20091;-65
2022/03/05 11:35:49;;;;;;;10.65;6.72;;;12.50;77.30;;;;;;5024473;28;20387;-64
2022/03/05 11:38:35;;;;;;;11.13;7.15;;;;;;;;;;5022567;28;20060;-66
2022/03/05 11:41:05;;;;;;;12.63;6.60;;;;;;;;;;5025283;28;20045;-64
2022/03/05 11:43:41;;;;;;;10.00;6.70;;;12.70;73.40;;;;;;5025643;28;20116;-64
2022/03/05 11:46:07;;;;;;;12.93;6.70;;;13.00;76.60;;;;;;5033170;28;20052;-63
2022/03/05 11:48:38;;;;;;;12.48;6.65;;;13.10;73.40;;;;;;5022894;28;20112;-65
2022/03/05 11:51:11;;;;;;;10.25;6.57;;;13.10;72.50;;;;;;5023029;28;20100;-65
2022/03/05 11:53:38;;;;;;;12.40;7.25;;;;;;;;;;5017633;28;20504;-65
2022/03/05 11:56:22;;;;;;;14.23;7.45;;;13.20;72.30;;;;;;5020182;28;20119;-64
2022/03/05 11:58:48;;;;;;;11.50;7.10;;;13.20;76.30;;;;;;5018348;28;20041;-59
2022/03/05 12:01:33;;;;;;;12.52;6.57;;;;;;;;;;5022071;28;20040;-65
2022/03/05 12:04:03;;;;;;;12.20;7.10;;;13.30;76.00;;;;;;5023941;28;20099;-66
2022/03/05 12:06:51;;;;;;;12.70;6.43;;;13.10;73.00;;;;;;5018025;28;20113;-64
2022/03/05 12:09:30;;;;;;;11.68;6.93;;;13.60;72.10;;;;;;5019293;28;20049;-61
2022/03/05 12:11:56;;;;;;;12.10;6.65;;;13.40;75.60;;;;;;5025730;28;20466;-64
2022/03/05 12:14:23;;;;;;;11.88;7.05;;;;;;;;;;5025827;28;20034;-62
2022/03/05 12:16:49;;;;;;;10.45;6.55;;;;;;;;;;5016092;28;20077;-66
2022/03/05 12:19:15;;;;;;;12.93;7.25;;;;;;;;;;5015412;28;20045;-63
2022/03/05 12:21:41;;;;;;;12.35;6.82;;;13.80;75.70;;;;;;5025881;28;20038;-63
2022/03/05 12:24:09;;;;;;;12.07;7.30;;;13.90;75.40;;;;;;5021107;28;20422;-63
2022/03/05 12:26:42;;;;;;;11.57;6.85;;;13.90;75.40;;;;;;5021134;28;20491;-61
2022/03/05 12:29:08;;;;;;;;;;;13.90;72.90;;;;;;5021390;28;20033;-61
2022/03/05 12:31:38;;;;;;;11.77;6.65;;;13.80;73.30;;;;;;5021928;28;19925;-65
2022/03/05 12:34:04;;;;;;;12.73;7.43;;;13.90;75.60;;;;;;5022526;28;20061;-64
2022/03/05 12:36:30;;;;;;;11.35;6.43;;;14.10;75.60;;;;;;5029505;28;20035;-63
2022/03/05 12:38:59;;;;;;;11.82;7.32;;;14.00;75.30;;;;;;5028851;28;20113;-61
2022/03/05 12:41:26;;;;;;;11.50;6.95;;;14.30;72.20;;;;;;5022936;28;20037;-65
2022/03/05 12:43:53;;;;;;;14.07;7.13;;;;;;;;;;5025671;28;20077;-65
2022/03/05 12:46:18;;;;;;;16.17;7.43;;;14.30;75.30;;;;;;5025083;28;20112;-66
2022/03/05 12:48:46;;;;;;;13.32;7.05;;;14.40;72.10;;;;;;5025247;28;20535;-66
2022/03/05 12:51:12;;;;;;;12.45;7.35;;;14.30;75.20;;;;;;5030712;28;20045;-66
2022/03/05 12:53:39;;;;;;;10.27;7.18;;;14.20;75.30;;;;;;5021514;28;20095;-63
2022/03/05 12:56:05;;;;;;;13.15;7.28;;;;;;;;;;5031612;28;20055;-61
2022/03/05 12:58:32;;;;;;;11.85;6.68;;;14.20;75.40;;;;;;5032490;28;20045;-62
2022/03/05 13:01:00;;;;;;;12.90;7.30;;;14.30;73.00;;;;;;5032813;28;20095;-64
2022/03/05 13:03:27;;;;;;;13.32;7.35;;;;;;;;;;5030618;28;20045;-68
2022/03/05 13:05:53;;;;;;;16.63;7.45;;;14.20;75.50;;;;;;5022209;28;20049;-67
2022/03/05 13:08:26;;;;;;;12.40;7.65;;;;;;;;;;5026884;28;20091;-66
2022/03/05 13:11:15;;;;;;;12.55;7.40;;;14.20;72.80;;;;;;5022636;28;20058;-66
2022/03/05 13:13:44;;;;;;;15.25;7.82;;;14.30;75.40;;;;;;5028287;28;20069;-65
2022/03/05 13:16:12;;;;;;;16.50;8.10;;;13.90;75.30;;;;;;5036596;28;20069;-65
2022/03/05 13:18:38;;;;;;;12.50;8.13;;;14.10;74.00;;;;;;5034457;28;20494;-66
2022/03/05 13:21:05;;;;;;;16.27;7.75;;;13.80;75.20;;;;;;5036199;28;20045;-65
2022/03/05 13:23:35;;;;;;;15.63;8.32;;;14.00;75.50;;;;;;5036969;28;20045;-65
2022/03/05 13:26:01;;;;;;;13.57;7.40;;;;;;;;;;5035715;28;20557;-64
2022/03/05 13:28:27;;;;;;;12.68;7.47;;;14.00;75.40;;;;;;5018471;28;20057;-63
2022/03/05 13:31:01;;;;;;;12.52;7.93;;;14.10;75.60;;;;;;5035926;28;20061;-62
2022/03/05 13:33:47;;;;;;;12.00;7.93;;;13.90;72.80;;;;;;5035569;28;20038;-66
2022/03/05 13:36:22;;;;;;;12.48;7.93;;;14.00;75.70;;;;;;5016070;28;20121;-64
2022/03/05 13:38:48;;;;;;;11.95;7.85;;;13.80;75.70;;;;;;5016425;28;20450;-66
2022/03/05 13:41:19;;;;;;;13.57;7.82;;;13.50;75.50;;;;;;5035387;28;20049;-65
2022/03/05 13:43:45;;;;;;;13.38;8.00;;;14.00;75.80;;;;;;5028164;28;20057;-66
2022/03/05 13:46:11;;;;;;;11.98;7.60;;;13.80;75.70;;;;;;5015970;28;20064;-65
2022/03/05 13:49:06;;;;;;;13.77;8.00;;;;;;;;;;5031056;28;20046;-65
2022/03/05 13:51:33;;;;;;;12.82;7.93;;;;;;;;;;4954963;29;20055;-62
2022/03/05 13:54:01;;;;;;;11.20;7.30;;;13.30;75.70;;;;;;4939598;29;20050;-65
2022/03/05 13:56:27;;;;;;;14.15;7.93;;;13.60;76.00;;;;;;4939763;29;20058;-67
2022/03/05 13:58:57;;;;;;;12.57;7.93;;;13.60;71.80;;;;;;4955414;29;20047;-66
2022/03/05 14:01:33;;;;;;;13.75;7.78;;;13.40;75.90;;;;;;4945460;29;20060;-66
2022/03/05 14:04:12;;;;;;;13.02;7.95;;;13.40;71.70;;;;;;4936181;29;20067;-65
2022/03/05 14:07:00;;;;;;;12.60;7.40;;;13.60;76.30;;;;;;4920351;29;20078;-65
2022/03/05 14:09:36;;;;;;;14.75;7.80;;;13.40;76.20;;;;;;4935989;29;20497;-64
2022/03/05 14:12:04;;;;;;;11.85;7.53;;;13.30;76.30;;;;;;4939235;29;20054;-66
2022/03/05 14:14:59;;;;;;;12.35;7.88;;;13.10;71.80;;;;;;4935990;29;20047;-65
2022/03/05 14:17:39;;;;;;;13.38;7.30;;;13.10;72.40;;;;;;4939119;29;20100;-66
2022/03/05 14:20:20;;;;;;;11.35;7.15;;;13.30;76.60;;;;;;4955033;29;20047;-65
2022/03/05 14:22:53;;;;;;;14.27;8.32;;;13.10;76.50;;;;;;4954498;29;20061;-66
2022/03/05 14:25:23;;;;;;;13.25;7.68;;;13.20;72.30;;;;;;4955499;29;20055;-65
2022/03/05 14:27:51;;;;;;;12.25;7.60;;;13.00;76.50;;;;;;4971776;28;20093;-66
2022/03/05 14:30:17;;;;;;;10.77;7.15;;;12.80;76.40;;;;;;5014036;28;20058;-66
2022/03/05 14:32:43;;;;;;;12.05;7.68;;;13.00;76.60;;;;;;5015932;28;20443;-62
2022/03/05 14:35:10;;;;;;;12.00;7.85;;;12.90;76.80;;;;;;5034289;28;20038;-65
2022/03/05 14:37:37;;;;;;;15.05;8.43;;;12.70;76.60;;;;;;5014993;28;20048;-65
2022/03/05 14:40:04;;;;;;;13.02;6.97;;;12.90;76.80;;;;;;5024434;28;20041;-65
2022/03/05 14:42:30;;;;;;;14.02;7.43;;;12.80;74.30;;;;;;5029995;28;20049;-65
2022/03/05 14:44:55;;;;;;;12.18;7.63;;;13.00;77.20;;;;;;5028219;28;20045;-65
2022/03/05 14:47:21;;;;;;;12.60;7.82;;;12.90;77.10;;;;;;5034178;28;20052;-66
2022/03/05 14:49:47;;;;;;;11.73;7.28;;;12.90;77.00;;;;;;5034437;28;20049;-66
2022/03/05 14:52:13;;;;;;;12.43;7.10;;;12.90;77.10;;;;;;5023261;28;20058;-63
2022/03/05 14:54:39;;;;;;;12.90;7.03;;;13.00;74.70;;;;;;5020277;28;20096;-65
2022/03/05 14:57:05;;;;;;;12.27;7.15;;;12.80;77.20;;;;;;5033364;28;20045;-67
2022/03/05 14:59:31;;;;;;;12.13;6.80;;;12.70;77.20;;;;;;5034620;28;20053;-66
2022/03/05 15:01:57;;;;;;;12.57;7.22;;;12.90;77.30;;;;;;5032589;28;20068;-66
2022/03/05 15:04:22;;;;;;;12.70;6.80;;;12.50;77.20;;;;;;5034150;28;20054;-66
2022/03/05 15:06:48;;;;;;;11.80;7.40;;;12.50;74.90;;;;;;5034247;28;20120;-64
2022/03/05 15:09:14;;;;;;;11.85;6.57;;;12.60;77.40;;;;;;5024274;28;20056;-64
2022/03/05 15:11:40;;;;;;;12.68;7.07;;;12.70;77.70;;;;;;5014641;28;20082;-65
2022/03/05 15:14:06;;;;;;;12.75;6.57;;;12.60;75.80;;;;;;5014704;28;20042;-66
2022/03/05 15:16:31;;;;;;;12.18;6.70;;;12.90;77.60;;;;;;5023453;28;20044;-64
2022/03/05 15:18:57;;;;;;;11.30;7.32;;;12.70;74.80;;;;;;5033169;28;20045;-65
2022/03/05 15:21:24;;;;;;;10.15;6.35;;;12.70;77.70;;;;;;5028696;28;20121;-64
2022/03/05 15:23:50;;;;;;;14.00;7.32;;;12.70;77.60;;;;;;5023523;28;20060;-61
2022/03/05 15:26:17;;;;;;;14.18;7.88;;;12.80;74.90;;;;;;5023412;28;20491;-65
2022/03/05 15:28:43;;;;;;;13.88;7.50;;;;;;;;;;5017438;28;20084;-63
2022/03/05 15:31:12;;;;;;;12.88;7.03;;;;;;;;;;5012963;28;20050;-61
2022/03/05 15:33:42;;;;;;;12.57;7.10;;;;;;;;;;5014893;28;20124;-61
2022/03/05 15:36:09;;;;;;;12.32;7.03;;;;;;;;;;5012922;28;20095;-64
2022/03/05 15:38:35;;;;;;;12.02;6.85;;;;;;;;;;5016192;28;20053;-64
2022/03/05 15:41:01;;;;;;;12.20;7.10;;;;;;;;;;5026572;28;20045;-65
2022/03/05 15:43:27;;;;;;;13.18;7.00;;;;;;;;;;5015324;28;20038;-65
2022/03/05 15:45:53;;;;;;;13.13;6.68;;;;;;;;;;5012422;28;20053;-63
2022/03/05 15:48:19;;;;;;;13.55;6.95;;;12.70;76.80;;;;;;5014867;28;20046;-64
2022/03/05 15:50:45;;;;;;;11.07;6.63;;;;;;;;;;5025701;28;20049;-66
2022/03/05 15:53:11;;;;;;;12.40;6.93;;;;;;;;;;5018090;28;20099;-66
2022/03/05 15:55:38;;;;;;;13.15;7.13;;;;;;;;;;5027168;28;20049;-67
2022/03/05 15:58:04;;;;;;;16.75;7.18;;;;;;;;;;5018602;28;20041;-66
2022/03/05 16:00:31;;;;;;;11.82;6.97;;;12.80;77.10;;;;;;5028903;28;20045;-61
2022/03/05 16:02:57;;;;;;;13.93;6.85;;;12.70;77.70;;;;;;5028210;28;20404;-62
2022/03/05 16:05:24;;;;;;;10.80;6.28;;;;;;;;;;5030817;28;20053;-62
2022/03/05 16:07:52;;;;;;;10.65;6.90;;;;;;;;;;5029655;28;20129;-64
2022/03/05 16:10:18;;;;;;;11.75;6.72;;;;;;;;;;5028279;28;20148;-61
2022/03/05 16:12:47;;;;;;;12.70;6.47;;;12.70;75.00;;;;;;5030608;28;20053;-63
2022/03/05 16:15:13;;;;;;;12.00;5.93;;;;;;;;;;5030394;28;20053;-62
2022/03/05 16:17:39;;;;;;;11.98;6.18;;;;;;;;;;5026986;28;20464;-64
2022/03/05 16:20:06;;;;;;;13.07;6.22;;;12.60;75.70;;;;;;5018637;28;20037;-63
2022/03/05 16:22:32;;;;;;;11.43;6.50;;;;;;;;;;5014098;28;20409;-63
2022/03/05 16:24:57;;;;;;;13.20;6.10;;;12.50;78.20;;;;;;5025997;28;20045;-62
2022/03/05 16:27:24;;;;;;;9.85;5.78;;;;;;;;;;5021812;28;20041;-66
2022/03/05 16:29:50;;;;;;;11.50;6.25;;;;;;;;;;5030243;28;20088;-62
2022/03/05 16:32:16;;;;;;;9.20;5.55;;;12.50;76.50;;;;;;5028050;28;20053;-62
2022/03/05 16:34:42;;;;;;;12.25;6.18;;;;;;;;;;5029548;28;20128;-64
2022/03/05 16:37:08;;;;;;;21.17;5.97;;;;;;;;;;5021858;28;20042;-64
2022/03/05 16:39:34;;;;;;;12.80;6.25;;;;;;;;;;5021462;28;20049;-63
2022/03/05 16:42:00;;;;;;;11.77;5.93;;;;;;;;;;5018973;28;20053;-62
2022/03/05 16:44:27;;;;;;;13.90;6.50;;;;;;;;;;5016853;28;20065;-61
2022/03/05 16:46:53;;;;;;;9.88;5.82;;;;;;;;;;5020023;28;20049;-64
2022/03/05 16:49:19;;;;;;;10.68;5.50;;;;;;;;;;5029657;28;20097;-66
2022/03/05 16:51:45;;;;;;;10.63;6.20;;;;;;;;;;5030747;28;20488;-65
2022/03/05 16:54:11;;;;;;;8.50;5.30;;;;;;;;;;5021104;28;20073;-65
2022/03/05 16:56:38;;;;;;;12.02;5.50;;;;;;;;;;5015071;28;20071;-64
2022/03/05 16:59:05;;;;;;;9.90;5.80;;;;;;;;;;5015294;28;20355;-65
2022/03/05 17:01:31;;;;;;;11.93;5.97;;;;;;;;;;5016518;28;20050;-65
2022/03/05 17:03:57;;;;;;;10.90;6.35;;;12.70;78.10;;;;;;5018733;28;20049;-63
2022/03/05 17:06:23;;;;;;;10.13;6.35;;;;;;;;;;5012338;28;20042;-62
2022/03/05 17:08:50;;;;;;;9.10;5.32;;;;;;;;;;5016443;28;20572;-66
2022/03/05 17:11:16;;;;;;;10.52;6.03;;;;;;;;;;5014361;28;20045;-64
2022/03/05 17:13:45;;;;;;;9.43;5.45;;;12.50;80.00;;;;;;5019023;28;20038;-65
2022/03/05 17:16:11;;;;;;;9.40;5.90;;;12.50;78.30;;;;;;5034510;28;20124;-64
2022/03/05 17:18:37;;;;;;;10.35;6.30;;;;;;;;;;5033735;28;20207;-64
2022/03/05 17:21:06;;;;;;;11.13;5.80;;;12.50;79.90;;;;;;5032498;28;20052;-66
2022/03/05 17:23:32;;;;;;;11.23;5.97;;;12.60;78.90;;;;;;5032805;28;20438;-66
2022/03/05 17:25:58;;;;;;;9.55;5.63;;;12.40;80.10;;;;;;5030841;28;20057;-62
2022/03/05 17:28:24;;;;;;;12.70;6.20;;;12.20;80.10;;;;;;5034226;28;20057;-63
2022/03/05 17:30:50;;;;;;;8.65;5.47;;;;;;;;;;5009874;28;20062;-64
2022/03/05 17:33:16;;;;;;;8.93;5.35;;;;;;;;;;5022100;28;20057;-62
2022/03/05 17:35:42;;;;;;;9.13;5.45;;;12.30;80.10;;;;;;5020272;28;20403;-65
2022/03/05 17:38:08;;;;;;;10.68;5.88;;;12.30;80.10;;;;;;5020198;28;20044;-62
2022/03/05 17:40:35;;;;;;;9.57;5.47;;;;;;;;;;5013609;28;20488;-62
2022/03/05 17:43:01;;;;;;;9.48;5.85;;;;;;;;;;5014802;28;20068;-66
2022/03/05 17:45:27;;;;;;;12.18;5.90;;;;;;;;;;5016109;28;20053;-66
2022/03/05 17:47:54;;;;;;;9.85;5.65;;;;;;;;;;5017446;28;20058;-62
2022/03/05 17:50:24;;;;;;;9.65;6.38;;;;;;;;;;5019233;28;20048;-61
2022/03/05 17:52:50;;;;;;;10.40;6.32;;;12.10;80.40;;;;;;5025707;28;20112;-62
2022/03/05 17:55:16;;;;;;;9.15;5.55;;;;;;;;;;5020367;28;20046;-62
2022/03/05 17:57:43;;;;;;;10.52;6.05;;;;;;;;;;5027075;28;20045;-62
2022/03/05 18:00:10;;;;;;;9.20;5.75;;;;;;;;;;5016679;28;20063;-62
2022/03/05 18:02:35;;;;;;;9.70;5.78;;;11.80;80.20;;;;;;5013282;28;20444;-67
2022/03/05 18:05:03;;;;;;;10.80;5.90;;;;;;;;;;5012447;28;20088;-64
2022/03/05 18:07:29;;;;;;;10.13;6.13;;;12.10;80.40;;;;;;5023253;28;20053;-65
2022/03/05 18:09:55;;;;;;;9.20;5.90;;;;;;;;;;5016406;28;20121;-65
2022/03/05 18:12:21;;;;;;;10.48;5.68;;;;;;;;;;5014056;28;20042;-65
2022/03/05 18:14:48;;;;;;;10.73;6.43;;;;;;;;;;5007028;28;20116;-62
2022/03/05 18:17:14;;;;;;;8.93;5.57;;;;;;;;;;5017880;28;20491;-62
2022/03/05 18:19:40;;;;;;;10.63;5.75;;;12.20;77.40;;;;;;5019431;28;20088;-64
2022/03/05 18:22:07;;;;;;;8.98;5.75;;;12.40;80.40;;;;;;5014894;28;20045;-62
2022/03/05 18:24:34;;;;;;;11.95;6.15;;;;;;;;;;5019850;28;20046;-62
2022/03/05 18:27:00;;;;;;;11.85;5.75;;;;;;;;;;5015767;28;20056;-66
2022/03/05 18:29:26;;;;;;;10.23;5.97;;;12.10;80.50;;;;;;5015318;28;20054;-63
2022/03/05 18:31:52;;;;;;;8.18;5.28;;;12.00;80.20;;;;;;5030787;28;20092;-66
2022/03/05 18:34:18;;;;;;;8.90;5.65;;;;;;;;;;5014126;28;20092;-65
2022/03/05 18:36:44;;;;;;;12.55;5.78;;;12.10;78.60;;;;;;5015411;28;20042;-65
2022/03/05 18:39:10;;;;;;;9.85;5.93;;;;;;;;;;5015577;28;20042;-65
2022/03/05 18:41:37;;;;;;;8.30;5.22;;;;;;;;;;5019864;28;20049;-65
2022/03/05 18:44:03;;;;;;;10.60;6.10;;;;;;;;;;5012004;28;20381;-65
2022/03/05 18:46:29;;;;;;;8.65;5.25;;;12.00;77.80;;;;;;5025179;28;20725;-66
2022/03/05 18:48:58;;;;;;;9.05;5.60;;;;;;;;;;5018041;28;20129;-66
2022/03/05 18:51:25;;;;;;;8.40;5.53;;;11.90;77.10;;;;;;5019874;28;20129;-65
2022/03/05 18:53:50;;;;;;;9.13;5.57;;;12.00;80.60;;;;;;5024214;28;20056;-64
2022/03/05 18:56:19;;;;;;;8.18;5.18;;;11.70;80.40;;;;;;5023099;28;20038;-63
2022/03/05 18:58:45;;;;;;;9.50;5.68;;;;;;;;;;5013010;28;20108;-62
2022/03/05 19:01:12;;;;;;;10.13;5.53;;;;;;;;;;5020903;28;20663;-62
2022/03/05 19:03:38;;;;;;;9.80;5.57;;;11.90;77.10;;;;;;5019248;28;20041;-66
2022/03/05 19:06:04;;;;;;;8.73;5.70;;;;;;;;;;5022802;28;20080;-63
2022/03/05 19:08:31;;;;;;;9.20;5.85;;;;;;;;;;5019082;28;20099;-62
2022/03/05 19:10:58;;;;;;;8.90;5.30;;;;;;;;;;5014794;28;20550;-63
2022/03/05 19:13:25;;;;;;;10.82;6.18;;;12.00;77.80;;;;;;5022446;28;20057;-62
2022/03/05 19:15:51;;;;;;;9.68;6.22;;;;;;;;;;5017730;28;20444;-65
2022/03/05 19:18:17;;;;;;;8.77;5.80;;;;;;;;;;5019267;28;20045;-66
2022/03/05 19:20:43;;;;;;;9.13;5.82;;;11.60;80.60;;;;;;5017596;28;20091;-66
2022/03/05 19:23:10;;;;;;;8.52;5.55;;;;;;;;;;5019854;28;20528;-64
2022/03/05 19:25:36;;;;;;;10.70;5.90;;;;;;;;;;5018526;28;20399;-62
2022/03/05 19:28:03;;;;;;;9.68;5.80;;;;;;;;;;5019040;28;20447;-65
2022/03/05 19:30:29;;;;;;;10.65;6.13;;;;;;;;;;5022181;28;20054;-64
2022/03/05 19:32:56;;;;;;;10.50;6.13;;;;;;;;;;5019611;28;20518;-64
2022/03/05 19:35:25;;;;;;;9.25;5.85;;;;;;;;;;5020062;28;20073;-65
2022/03/05 19:37:52;;;;;;;9.13;6.22;;;;;;;;;;5023223;28;20078;-65
2022/03/05 19:40:18;;;;;;;10.25;5.88;;;;;;;;;;5018910;28;20050;-65
2022/03/05 19:42:44;;;;;;;8.80;5.78;;;11.80;81.10;;;;;;5020560;28;20060;-64
2022/03/05 19:45:11;;;;;;;9.48;5.97;;;;;;;;;;5016580;28;20042;-65
2022/03/05 19:47:37;;;;;;;10.45;7.03;;;;;;;;;;5029611;28;20060;-62
2022/03/05 19:50:03;;;;;;;11.15;6.43;;;11.70;79.20;;;;;;5026223;28;20044;-65
2022/03/05 19:52:29;;;;;;;9.10;5.90;;;;;;;;;;5026999;28;20057;-61
2022/03/05 19:54:55;;;;;;;10.02;6.63;;;;;;;;;;5024870;28;20042;-62
2022/03/05 19:57:21;;;;;;;10.52;6.28;;;11.30;80.90;;;;;;5026950;28;20038;-62
2022/03/05 19:59:47;;;;;;;11.57;7.18;;;;;;;;;;5027116;28;20124;-62
2022/03/05 20:02:13;;;;;;;11.55;7.45;;;11.70;81.10;;;;;;5019876;28;20495;-62
2022/03/05 20:04:39;;;;;;;10.00;6.63;;;;;;;;;;5010969;28;20072;-61
2022/03/05 20:07:08;;;;;;;11.13;6.68;;;;;;;;;;5015169;28;20037;-63
2022/03/05 20:09:34;;;;;;;10.95;6.88;;;;;;;;;;5022378;28;20391;-61
2022/03/05 20:12:00;;;;;;;11.63;6.82;;;;;;;;;;5024332;28;20049;-65
2022/03/05 20:14:27;;;;;;;10.70;6.78;;;11.50;77.10;;;;;;5026792;28;20041;-65
2022/03/05 20:16:54;;;;;;;10.45;7.15;;;;;;;;;;5010280;28;20407;-62
2022/03/05 20:19:20;;;;;;;11.93;7.10;;;;;;;;;;5010823;28;20045;-63
2022/03/05 20:21:46;;;;;;;10.15;6.75;;;;;;;;;;5021921;28;20053;-62
2022/03/05 20:24:12;;;;;;;12.32;7.50;;;11.30;80.10;;;;;;5022017;28;20049;-63
2022/03/05 20:26:38;;;;;;;12.15;7.35;;;;;;;;;;5020263;28;20034;-62
2022/03/05 20:29:04;;;;;;;14.38;8.02;;;11.70;79.20;;;;;;5022327;28;20103;-63
2022/03/05 20:31:31;;;;;;;11.75;7.35;;;;;;;;;;5030637;28;20107;-64
2022/03/05 20:33:57;;;;;;;10.20;6.68;;;11.60;81.50;;;;;;5036062;28;20048;-62
2022/03/05 20:36:23;;;;;;;13.60;7.32;;;11.70;80.10;;;;;;5035124;28;20116;-65
2022/03/05 20:38:48;;;;;;;12.82;7.35;;;11.40;81.50;;;;;;5036010;28;20065;-63
2022/03/05 20:41:14;;;;;;;11.25;6.90;;;11.50;81.70;;;;;;5035460;28;20498;-62
2022/03/05 20:43:41;;;;;;;10.80;7.35;;;;;;;;;;5034679;28;20045;-61
2022/03/05 20:46:06;;;;;;;10.32;7.15;;;11.70;81.80;;;;;;5034644;28;20040;-63
2022/03/05 20:48:32;;;;;;;10.77;6.88;;;;;;;;;;5032519;28;20412;-66
2022/03/05 20:50:58;;;;;;;12.60;7.38;;;11.70;82.00;;;;;;5035544;28;20045;-61
2022/03/05 20:53:24;;;;;;;11.88;7.10;;;11.40;79.40;;;;;;5034215;28;20508;-64
2022/03/05 20:55:50;;;;;;;11.07;6.72;;;11.50;81.90;;;;;;5035357;28;20044;-61
2022/03/05 20:58:16;;;;;;;11.27;7.38;;;11.40;82.00;;;;;;5034922;28;20061;-65
2022/03/05 21:00:42;;;;;;;11.15;6.97;;;;;;;;;;5036380;28;20475;-63
2022/03/05 21:03:08;;;;;;;11.45;7.30;;;11.50;82.10;;;;;;5036134;28;20045;-61
2022/03/05 21:05:34;;;;;;;10.00;6.57;;;11.20;81.90;;;;;;5047771;28;20507;-62
2022/03/05 21:08:01;;;;;;;10.82;7.15;;;;;;;;;;5024622;28;20483;-64
2022/03/05 21:10:27;;;;;;;10.27;6.50;;;11.30;82.20;;;;;;5035522;28;20045;-66
2022/03/05 21:12:54;;;;;;;10.88;7.07;;;11.30;82.30;;;;;;5034594;28;20058;-66
2022/03/05 21:15:20;;;;;;;12.27;6.82;;;11.50;82.50;;;;;;5034549;28;20051;-65
2022/03/05 21:17:46;;;;;;;9.50;6.45;;;11.30;82.80;;;;;;5036160;28;20042;-61
2022/03/05 21:20:12;;;;;;;9.63;7.13;;;11.40;83.10;;;;;;5036485;28;20533;-61
2022/03/05 21:22:38;;;;;;;10.73;6.90;;;11.30;83.60;;;;;;5034791;28;20125;-60
2022/03/05 21:25:04;;;;;;;11.45;7.57;;;11.40;83.40;;;;;;5018055;28;20099;-62
2022/03/05 21:27:30;;;;;;;9.88;6.80;;;;;;;;;;5034148;28;20053;-62
2022/03/05 21:29:56;;;;;;;9.30;6.50;;;11.10;84.00;;;;;;5034992;28;20053;-61
2022/03/05 21:32:22;;;;;;;12.20;7.00;;;11.40;81.90;;;;;;5035133;28;20060;-63
2022/03/05 21:34:48;;;;;;;10.45;6.78;;;11.40;83.90;;;;;;5031848;28;20088;-66
2022/03/05 21:37:14;;;;;;;10.10;6.45;;;11.50;84.20;;;;;;5035673;28;20049;-66
2022/03/05 21:39:39;;;;;;;10.63;6.55;;;11.30;84.30;;;;;;5038542;28;20608;-64
2022/03/05 21:42:05;;;;;;;10.68;6.85;;;11.40;84.80;;;;;;5044018;28;20479;-66
2022/03/05 21:44:32;;;;;;;10.55;7.30;;;11.40;84.90;;;;;;5035755;28;20127;-65
2022/03/05 21:46:57;;;;;;;8.95;6.18;;;11.30;84.70;;;;;;5035991;28;20033;-66
2022/03/05 21:49:23;;;;;;;9.07;6.75;;;11.00;84.50;;;;;;5035448;28;20052;-65
2022/03/05 21:51:49;;;;;;;11.13;6.85;;;11.10;84.90;;;;;;5035486;28;20045;-65
2022/03/05 21:54:15;;;;;;;8.38;5.97;;;11.30;82.60;;;;;;5035586;28;20037;-67
2022/03/05 21:56:41;;;;;;;9.95;6.65;;;11.40;84.90;;;;;;5030185;28;20042;-66
2022/03/05 21:59:07;;;;;;;9.38;6.75;;;11.20;85.10;;;;;;5016118;28;20077;-66
2022/03/05 22:01:32;;;;;;;13.00;7.32;;;11.40;85.00;;;;;;5032679;28;20045;-66
2022/03/05 22:03:58;;;;;;;9.02;6.22;;;11.10;84.90;;;;;;5016271;28;20501;-65
2022/03/05 22:06:24;;;;;;;12.38;6.30;;;;;;;;;;5033847;28;20064;-66
2022/03/05 22:08:51;;;;;;;12.20;7.07;;;11.40;85.10;;;;;;5034054;28;20045;-65
2022/03/05 22:11:17;;;;;;;11.75;6.57;;;11.40;85.10;;;;;;5033922;28;20088;-65
2022/03/05 22:13:42;;;;;;;9.32;6.65;;;11.30;85.00;;;;;;5032719;28;20041;-64
2022/03/05 22:16:08;;;;;;;10.98;6.65;;;;;;;;;;5030163;28;20450;-65
2022/03/05 22:18:34;;;;;;;10.13;6.38;;;11.40;85.30;;;;;;5033983;28;20073;-65
2022/03/05 22:21:01;;;;;;;10.88;6.45;;;11.20;85.10;;;;;;5032560;28;20514;-64
2022/03/05 22:23:27;;;;;;;12.63;6.75;;;;;;;;;;5010478;28;20081;-63
2022/03/05 22:25:54;;;;;;;9.35;6.13;;;;;;;;;;5033544;28;20036;-65
2022/03/05 22:28:20;;;;;;;9.85;6.47;;;11.70;85.40;;;;;;5034005;28;20041;-65
2022/03/05 22:30:45;;;;;;;10.77;6.18;;;11.40;85.40;;;;;;5032510;28;20119;-66
2022/03/05 22:33:11;;;;;;;9.43;6.45;;;11.40;85.40;;;;;;5034286;28;20049;-66
2022/03/05 22:35:37;;;;;;;10.73;6.75;;;11.30;85.60;;;;;;5016665;28;20508;-66
2022/03/05 22:38:03;;;;;;;10.48;5.95;;;11.40;83.30;;;;;;5034664;28;20056;-65
2022/03/05 22:40:29;;;;;;;9.82;6.07;;;11.40;85.60;;;;;;5035003;28;20085;-61
2022/03/05 22:42:56;;;;;;;8.98;6.10;;;11.40;85.80;;;;;;5034790;28;20080;-62
2022/03/05 22:45:23;;;;;;;8.68;6.35;;;11.30;85.50;;;;;;5034922;28;20099;-65
2022/03/05 22:47:48;;;;;;;9.20;6.60;;;11.40;85.70;;;;;;5036123;28;20048;-65
2022/03/05 22:50:14;;;;;;;10.00;6.28;;;11.40;83.60;;;;;;5054812;28;20044;-65
2022/03/05 22:52:41;;;;;;;7.63;5.97;;;;;;;;;;5054702;28;20051;-64
2022/03/05 22:55:08;;;;;;;9.27;5.57;;;11.30;83.60;;;;;;5053421;28;20131;-64
2022/03/05 22:57:34;;;;;;;9.82;6.38;;;;;;;;;;5044446;28;20415;-65
2022/03/05 23:00:00;;;;;;;9.98;6.07;;;11.30;86.10;;;;;;5033074;28;20042;-64
2022/03/05 23:05:11;;;;;;;8.77;5.70;;;;;;;;;;5024255;28;20491;-66
2022/03/05 23:10:21;;;;;;;9.82;5.80;;;11.50;86.10;;;;;;5033633;28;20368;-62
2022/03/05 23:12:47;;;;;;;9.88;6.50;;;11.50;82.30;;;;;;5032784;28;20076;-62
2022/03/05 23:15:12;;;;;;;8.07;5.60;;;11.30;85.60;;;;;;5019506;28;20034;-64
2022/03/05 23:17:38;;;;;;;8.35;5.38;;;11.60;85.50;;;;;;5013920;28;20050;-63
2022/03/05 23:20:05;;;;;;;8.65;5.32;;;11.40;85.30;;;;;;5031045;28;20038;-63
2022/03/05 23:22:30;;;;;;;9.82;5.57;;;11.50;85.40;;;;;;5026645;28;20383;-64
2022/03/05 23:24:56;;;;;;;8.68;5.20;;;11.30;85.20;;;;;;5031737;28;20037;-65
2022/03/05 23:27:22;;;;;;;9.30;5.85;;;;;;;;;;5018214;28;20476;-64
2022/03/05 23:29:48;;;;;;;8.30;5.85;;;11.40;85.00;;;;;;5018931;28;20138;-62
2022/03/05 23:32:14;;;;;;;8.45;5.70;;;;;;;;;;5027767;28;20133;-66
2022/03/05 23:34:41;;;;;;;8.32;5.38;;;11.70;85.10;;;;;;5021896;28;20069;-66
2022/03/05 23:37:06;;;;;;;11.00;5.47;;;11.50;84.90;;;;;;5029783;28;20045;-65
2022/03/05 23:39:32;;;;;;;8.98;5.85;;;;;;;;;;5026308;28;20042;-65
2022/03/05 23:41:58;;;;;;;8.43;5.20;;;11.10;82.20;;;;;;5031763;28;20049;-64
2022/03/05 23:44:24;;;;;;;9.70;5.40;;;11.50;84.80;;;;;;5032984;28;20064;-65
2022/03/05 23:46:50;;;;;;;7.93;5.50;;;;;;;;;;5033003;28;20052;-67
2022/03/05 23:49:16;;;;;;;9.68;5.35;;;11.40;84.50;;;;;;5032606;28;20033;-66
2022/03/05 23:51:42;;;;;;;8.07;5.18;;;11.50;84.60;;;;;;5028787;28;20048;-66
2022/03/05 23:54:08;;;;;;;8.55;5.18;;;;;;;;;;5016427;28;20398;-66
2022/03/05 23:56:34;;;;;;;8.05;4.75;;;;;;;;;;5031971;28;20103;-66
2022/03/05 23:58:59;;;;;;;8.18;4.45;;;11.40;84.30;;;;;;5041966;28;20045;-66
